Time;durP1;ratioP1;P1;durP2;ratioP2;P2;SDS_P1;SDS_P2;PMS_P1;PMS_P2;Temp;Humidity;BMP_temperature;BMP_pressure;BME280_temperature;BME280_humidity;BME280_pressure;Samples;Min_cycle;Max_cycle;Signal;HPM_P1;HPM_P2
2022/12/21 00:01:35;;;;;;;4.27;3.40;;;9.40;1.00;;;;;;5119873;28;20549;-46
2022/12/21 00:04:03;;;;;;;4.60;3.43;;;9.50;1.00;;;;;;5119272;28;20176;-45
2022/12/21 00:06:31;;;;;;;4.60;4.00;;;9.50;1.00;;;;;;5119640;28;20218;-45
2022/12/21 00:08:59;;;;;;;4.73;3.50;;;9.50;11.70;;;;;;5119571;28;20418;-46
2022/12/21 00:11:26;;;;;;;5.00;3.90;;;9.50;99.90;;;;;;5100535;28;20750;-44
2022/12/21 00:13:52;;;;;;;3.57;3.27;;;9.60;99.90;;;;;;5119498;28;20501;-43
2022/12/21 00:16:20;;;;;;;4.73;3.67;;;9.60;99.90;;;;;;5120093;28;20904;-43
2022/12/21 00:18:46;;;;;;;4.13;3.03;;;9.60;99.90;;;;;;5119776;28;20414;-43
2022/12/21 00:21:16;;;;;;;4.20;3.77;;;9.60;99.90;;;;;;5118952;28;20476;-44
2022/12/21 00:23:42;;;;;;;3.77;3.27;;;9.60;99.90;;;;;;5119811;28;20409;-44
2022/12/21 00:26:09;;;;;;;4.67;4.17;;;9.60;1.00;;;;;;5118698;28;20414;-44
2022/12/21 00:28:35;;;;;;;5.80;3.47;;;9.60;1.00;;;;;;5119415;28;20504;-43
2022/12/21 00:31:12;;;;;;;4.10;3.60;;;9.60;1.00;;;;;;5119740;28;20449;-53
2022/12/21 00:33:38;;;;;;;4.87;3.50;;;9.60;1.00;;;;;;5119455;28;20423;-43
2022/12/21 00:36:05;;;;;;;4.10;3.33;;;9.60;1.00;;;;;;5120163;28;20445;-47
2022/12/21 00:38:32;;;;;;;4.30;3.30;;;9.70;1.00;;;;;;5120137;28;20887;-45
2022/12/21 00:41:02;;;;;;;4.17;3.27;;;9.70;1.00;;;;;;5119435;28;20516;-48
2022/12/21 00:43:28;;;;;;;4.10;3.70;;;9.60;1.00;;;;;;5119699;28;20430;-45
2022/12/21 00:45:54;;;;;;;4.50;3.60;;;9.60;1.00;;;;;;5120067;28;20672;-43
2022/12/21 00:48:20;;;;;;;4.47;3.57;;;9.60;1.00;;;;;;5119704;28;20421;-43
2022/12/21 00:50:46;;;;;;;3.93;3.60;;;9.70;1.00;;;;;;5119049;28;20260;-43
2022/12/21 00:53:11;;;;;;;4.40;4.00;;;9.60;1.00;;;;;;5118938;28;20523;-46
2022/12/21 00:55:37;;;;;;;4.83;3.27;;;9.60;1.00;;;;;;5118839;28;20172;-42
2022/12/21 00:58:03;;;;;;;4.10;3.70;;;9.60;1.00;;;;;;5118441;28;20561;-43
2022/12/21 01:00:29;;;;;;;4.40;3.80;;;9.60;1.00;;;;;;5117460;28;20738;-44
2022/12/21 01:02:55;;;;;;;5.47;4.30;;;9.60;1.00;;;;;;5119442;28;20463;-44
2022/12/21 01:05:23;;;;;;;7.77;4.63;;;9.60;1.00;;;;;;5119591;28;20178;-42
2022/12/21 01:07:49;;;;;;;4.73;4.20;;;9.60;1.00;;;;;;5117097;28;20180;-43
2022/12/21 01:10:14;;;;;;;4.20;3.80;;;9.60;1.00;;;;;;5119097;28;20432;-42
2022/12/21 01:12:40;;;;;;;5.13;4.20;;;9.60;1.00;;;;;;5118754;28;20383;-43
2022/12/21 01:15:07;;;;;;;5.60;4.30;;;9.60;1.00;;;;;;5117984;28;20171;-43
2022/12/21 01:17:33;;;;;;;4.30;3.60;;;9.60;1.00;;;;;;5117710;28;20584;-46
2022/12/21 01:20:00;;;;;;;4.93;4.30;;;9.60;1.00;;;;;;5118126;28;20457;-45
2022/12/21 01:22:25;;;;;;;4.23;3.90;;;9.60;1.00;;;;;;5118400;28;20425;-44
2022/12/21 01:24:51;;;;;;;3.60;3.30;;;9.60;1.00;;;;;;5118702;28;20465;-44
2022/12/21 01:27:16;;;;;;;3.83;3.33;;;9.60;49.70;;;;;;5118406;28;20176;-45
2022/12/21 01:29:42;;;;;;;4.67;2.70;;;9.60;99.90;;;;;;5118827;28;20186;-46
2022/12/21 01:32:08;;;;;;;3.50;2.90;;;10.20;99.90;;;;;;5118853;28;20453;-43
2022/12/21 01:34:33;;;;;;;5.40;3.50;;;10.60;1.00;;;;;;5118107;28;20172;-42
2022/12/21 01:36:59;;;;;;;5.07;4.00;;;10.80;99.90;;;;;;5118788;28;20183;-43
2022/12/21 01:39:25;;;;;;;4.57;4.17;;;10.80;99.90;;;;;;5118611;28;20172;-43
2022/12/21 01:41:50;;;;;;;5.97;4.57;;;10.70;62.70;;;;;;5118451;28;20175;-44
2022/12/21 01:44:53;;;;;;;4.20;3.80;;;10.60;1.00;;;;;;5118035;28;20248;-44
2022/12/21 01:47:22;;;;;;;5.30;3.97;;;10.40;99.90;;;;;;5117683;28;20172;-43
2022/12/21 01:49:52;;;;;;;4.43;3.93;;;10.20;99.90;;;;;;5100085;28;20445;-43
2022/12/21 01:52:18;;;;;;;5.30;4.00;;;10.10;99.90;;;;;;5100367;28;20890;-42
2022/12/21 01:54:48;;;;;;;8.50;4.00;;;10.00;99.90;;;;;;5099979;28;20755;-44
2022/12/21 01:57:14;;;;;;;5.67;4.03;;;9.90;99.90;;;;;;5117451;28;20448;-44
2022/12/21 01:59:43;;;;;;;4.63;4.00;;;9.90;1.00;;;;;;5100613;28;20457;-46
2022/12/21 02:02:17;;;;;;;5.00;3.77;;;9.80;1.00;;;;;;5099890;28;20449;-42
2022/12/21 02:04:43;;;;;;;4.40;3.73;;;9.80;1.00;;;;;;5101946;28;20490;-43
2022/12/21 02:07:09;;;;;;;5.27;4.07;;;9.70;1.00;;;;;;5122461;28;20983;-43
2022/12/21 02:09:36;;;;;;;5.73;3.70;;;9.70;47.50;;;;;;5122154;28;20629;-43
2022/12/21 02:15:47;;;;;;;5.07;3.57;;;9.70;99.90;;;;;;5121083;28;20464;-43
2022/12/21 02:18:42;;;;;;;4.10;3.20;;;9.60;99.90;;;;;;5103612;28;20437;-44
2022/12/21 02:21:20;;;;;;;3.60;3.30;;;9.60;1.00;;;;;;5099333;28;20469;-43
2022/12/21 02:24:07;;;;;;;4.43;3.50;;;9.60;1.00;;;;;;5121573;28;20764;-43
2022/12/21 02:26:35;;;;;;;4.03;3.43;;;9.60;1.00;;;;;;5121658;28;20438;-43
2022/12/21 02:29:22;;;;;;;3.87;3.40;;;9.60;1.00;;;;;;5122449;28;20440;-43
2022/12/21 02:32:09;;;;;;;3.17;2.80;;;9.60;1.00;;;;;;5121801;28;20444;-44
2022/12/21 02:34:41;;;;;;;4.60;3.47;;;9.60;1.00;;;;;;5121305;28;20417;-44
2022/12/21 02:37:11;;;;;;;3.30;2.53;;;9.60;24.70;;;;;;5121843;28;20421;-44
2022/12/21 02:39:57;;;;;;;4.43;3.60;;;9.60;82.90;;;;;;5104078;28;20553;-45
2022/12/21 02:45:43;;;;;;;3.73;3.27;;;9.60;99.90;;;;;;5038788;28;20421;-42
2022/12/21 02:48:14;;;;;;;5.70;4.20;;;9.60;99.90;;;;;;5095762;28;20417;-43
2022/12/21 02:50:43;;;;;;;3.43;3.00;;;9.60;99.90;;;;;;5103889;28;20405;-44
2022/12/21 02:53:14;;;;;;;3.80;3.33;;;9.60;99.90;;;;;;5121730;28;20430;-42
2022/12/21 02:55:39;;;;;;;4.50;3.10;;;9.60;1.00;;;;;;5085863;28;20425;-44
2022/12/21 02:58:22;;;;;;;3.60;3.20;;;9.60;1.00;;;;;;5121118;28;20429;-45
2022/12/21 03:00:51;;;;;;;3.23;2.93;;;9.60;1.00;;;;;;5121614;28;20203;-43
2022/12/21 03:03:49;;;;;;;3.70;2.90;;;9.60;1.00;;;;;;5103843;28;20504;-44
2022/12/21 03:06:47;;;;;;;3.70;3.30;;;9.60;1.00;;;;;;5120894;28;20429;-46
2022/12/21 03:09:13;;;;;;;4.80;3.43;;;9.60;19.20;;;;;;5099513;28;20456;-47
2022/12/21 03:12:03;;;;;;;4.37;3.53;;;9.60;82.10;;;;;;5122002;28;20859;-45
2022/12/21 03:14:46;;;;;;;4.13;3.40;;;9.60;99.90;;;;;;5121548;28;20250;-42
2022/12/21 03:17:24;;;;;;;3.40;3.10;;;9.60;99.90;;;;;;5121565;28;20757;-44
2022/12/21 03:20:11;;;;;;;7.23;3.30;;;9.60;99.90;;;;;;5121409;28;20499;-43
2022/12/21 03:22:58;;;;;;;3.80;3.40;;;9.60;99.90;;;;;;5120671;28;20436;-43
2022/12/21 03:25:38;;;;;;;6.27;3.13;;;9.60;99.90;;;;;;5120738;28;20416;-45
2022/12/21 03:28:08;;;;;;;4.13;3.00;;;9.60;99.90;;;;;;5121274;28;20715;-46
2022/12/21 03:30:40;;;;;;;4.13;3.17;;;9.60;99.90;;;;;;5120908;28;20433;-45
2022/12/21 03:33:08;;;;;;;5.00;4.10;;;9.50;99.90;;;;;;5102824;28;20486;-44
2022/12/21 03:35:52;;;;;;;5.80;3.97;;;9.50;99.90;;;;;;5103627;28;20464;-45
2022/12/21 03:38:24;;;;;;;4.00;3.43;;;9.50;99.90;;;;;;5121069;28;20450;-44
2022/12/21 03:40:51;;;;;;;4.23;3.40;;;9.60;99.90;;;;;;5120610;28;20457;-43
2022/12/21 03:43:22;;;;;;;5.53;3.23;;;9.50;99.30;;;;;;5102535;28;20471;-44
2022/12/21 03:45:53;;;;;;;3.27;2.90;;;9.50;99.90;;;;;;5120470;28;20639;-43
2022/12/21 03:48:36;;;;;;;4.63;3.53;;;9.60;99.90;;;;;;5102736;28;20426;-42
2022/12/21 03:51:13;;;;;;;4.10;3.30;;;9.50;99.90;;;;;;5102747;28;20413;-42
2022/12/21 03:53:57;;;;;;;3.90;2.90;;;9.50;99.90;;;;;;5102260;28;20748;-44
2022/12/21 03:56:31;;;;;;;3.93;3.53;;;9.50;99.90;;;;;;5120463;28;20457;-45
2022/12/21 03:58:57;;;;;;;4.30;3.30;;;9.50;1.00;;;;;;5120494;28;20456;-42
2022/12/21 04:01:53;;;;;;;5.30;2.83;;;9.50;1.00;;;;;;5119886;28;20473;-46
2022/12/21 04:04:30;;;;;;;3.37;3.07;;;9.50;1.00;;;;;;5120316;28;20452;-46
2022/12/21 04:06:58;;;;;;;4.77;3.00;;;9.50;1.00;;;;;;5120692;28;20482;-42
2022/12/21 04:09:24;;;;;;;5.20;2.83;;;9.50;1.00;;;;;;5102344;28;20425;-44
2022/12/21 04:14:34;;;;;;;3.83;3.20;;;9.50;1.00;;;;;;5108155;28;20461;-44
2022/12/21 04:17:01;;;;;;;3.10;2.80;;;9.40;15.00;;;;;;5119241;28;20422;-46
2022/12/21 04:28:06;;;;;;;3.50;3.17;;;9.40;99.90;;;;;;5119470;28;20534;-43
2022/12/21 04:30:24;;;;;;;3.30;2.80;;;9.50;99.90;;;;;;5118916;28;20458;-43
2022/12/21 04:32:50;;;;;;;3.93;2.43;;;9.50;99.90;;;;;;5119864;28;20429;-42
2022/12/21 04:35:15;;;;;;;2.33;2.07;;;9.50;99.90;;;;;;5119039;28;20303;-42
2022/12/21 04:37:41;;;;;;;3.40;2.57;;;9.50;1.00;;;;;;5118033;28;20248;-45
2022/12/21 04:40:08;;;;;;;6.10;3.00;;;9.50;1.00;;;;;;5118482;28;20267;-44
2022/12/21 04:42:33;;;;;;;3.73;2.80;;;9.50;1.00;;;;;;5118061;28;20429;-43
2022/12/21 04:44:59;;;;;;;3.60;2.80;;;9.50;1.00;;;;;;5118445;28;20466;-45
2022/12/21 04:47:24;;;;;;;3.33;2.87;;;9.50;1.00;;;;;;5117696;28;20175;-44
2022/12/21 04:49:50;;;;;;;4.30;3.00;;;9.50;1.00;;;;;;5118275;28;20255;-43
2022/12/21 04:52:16;;;;;;;3.30;2.20;;;9.50;1.00;;;;;;5116708;28;20171;-45
2022/12/21 04:54:42;;;;;;;3.70;2.23;;;9.50;1.00;;;;;;5116608;28;20418;-43
2022/12/21 04:57:08;;;;;;;3.70;2.60;;;9.50;1.00;;;;;;5116417;28;20180;-43
2022/12/21 04:59:33;;;;;;;2.80;2.57;;;9.50;1.00;;;;;;5115470;28;20172;-43
2022/12/21 05:01:59;;;;;;;3.27;2.97;;;9.50;1.00;;;;;;5114734;28;20175;-43
2022/12/21 05:04:24;;;;;;;2.63;2.30;;;9.50;1.00;;;;;;5117640;28;20168;-45
2022/12/21 05:06:50;;;;;;;4.90;2.90;;;9.50;1.00;;;;;;5116457;28;20187;-41
2022/12/21 05:09:16;;;;;;;3.00;2.70;;;9.60;1.00;;;;;;5116446;28;20415;-44
2022/12/21 05:11:41;;;;;;;2.60;2.23;;;9.60;1.00;;;;;;5116814;28;20268;-44
2022/12/21 05:14:07;;;;;;;3.10;2.80;;;9.60;1.00;;;;;;5116512;28;20232;-43
2022/12/21 05:16:32;;;;;;;4.77;2.80;;;9.60;1.00;;;;;;5115500;28;20202;-43
2022/12/21 05:18:58;;;;;;;2.67;2.40;;;9.60;1.00;;;;;;5113161;28;20176;-42
2022/12/21 05:21:24;;;;;;;2.50;2.27;;;9.60;1.00;;;;;;5112820;28;20287;-44
2022/12/21 05:23:50;;;;;;;3.40;2.80;;;9.60;1.00;;;;;;5114572;28;20210;-42
2022/12/21 05:26:16;;;;;;;6.10;3.40;;;9.60;1.00;;;;;;5115667;28;20450;-43
2022/12/21 05:28:45;;;;;;;3.00;2.37;;;9.60;2.90;;;;;;5116898;28;20231;-45
2022/12/21 05:31:12;;;;;;;4.90;2.53;;;9.60;30.60;;;;;;5117466;28;20874;-43
2022/12/21 05:33:37;;;;;;;4.20;2.40;;;9.60;76.20;;;;;;5117780;28;20405;-45
2022/12/21 05:36:04;;;;;;;3.30;2.73;;;9.60;95.00;;;;;;5116352;28;20485;-44
2022/12/21 05:38:30;;;;;;;4.10;2.93;;;9.60;99.90;;;;;;5116173;28;20612;-42
2022/12/21 05:40:56;;;;;;;2.73;2.20;;;9.60;99.90;;;;;;5115063;28;20809;-43
2022/12/21 05:43:22;;;;;;;3.43;2.57;;;9.60;99.90;;;;;;5115587;28;20163;-42
2022/12/21 05:45:48;;;;;;;2.53;2.33;;;9.60;99.90;;;;;;5116587;28;20180;-44
2022/12/21 05:48:14;;;;;;;4.80;2.50;;;9.60;99.90;;;;;;5115826;28;20183;-44
2022/12/21 05:50:40;;;;;;;3.30;2.10;;;9.60;99.90;;;;;;5114838;28;20409;-42
2022/12/21 05:53:06;;;;;;;3.93;2.67;;;9.60;99.90;;;;;;5116886;28;20211;-42
2022/12/21 05:55:32;;;;;;;3.40;2.53;;;9.60;99.90;;;;;;5117784;28;20409;-43
2022/12/21 05:57:58;;;;;;;4.10;2.60;;;9.60;99.90;;;;;;5116107;28;20432;-42
2022/12/21 06:00:23;;;;;;;3.27;2.90;;;9.60;1.00;;;;;;5114623;28;20294;-43
2022/12/21 06:02:50;;;;;;;3.30;2.30;;;9.60;1.00;;;;;;5114550;28;20518;-49
2022/12/21 06:05:16;;;;;;;3.23;2.60;;;9.60;1.00;;;;;;5113441;28;20573;-44
2022/12/21 06:07:46;;;;;;;3.00;2.30;;;9.60;1.00;;;;;;5115081;28;20742;-45
2022/12/21 06:10:11;;;;;;;3.67;2.40;;;9.60;1.00;;;;;;5114632;28;20179;-45
2022/12/21 06:12:37;;;;;;;3.30;2.50;;;9.60;1.00;;;;;;5114298;28;20440;-44
2022/12/21 06:15:03;;;;;;;2.90;2.30;;;9.60;1.00;;;;;;5117052;28;20219;-42
2022/12/21 06:17:29;;;;;;;4.60;2.97;;;9.60;1.00;;;;;;5115964;28;20446;-46
2022/12/21 06:19:56;;;;;;;3.67;2.53;;;9.60;1.00;;;;;;5114354;28;20464;-43
2022/12/21 06:22:21;;;;;;;3.10;2.63;;;9.60;1.00;;;;;;5114220;28;20413;-43
2022/12/21 06:24:47;;;;;;;4.40;2.60;;;9.60;1.00;;;;;;5115570;28;20416;-46
2022/12/21 06:27:12;;;;;;;5.87;2.83;;;9.60;1.00;;;;;;5114391;28;20237;-43
2022/12/21 06:29:38;;;;;;;2.63;2.37;;;9.60;5.00;;;;;;5114847;28;20230;-48
2022/12/21 06:32:04;;;;;;;2.83;2.63;;;9.60;11.50;;;;;;5114148;28;20554;-43
2022/12/21 06:34:29;;;;;;;5.30;2.70;;;9.60;30.40;;;;;;5114673;28;20435;-43
2022/12/21 06:36:55;;;;;;;2.73;2.10;;;9.60;53.90;;;;;;5113319;28;20175;-45
2022/12/21 06:39:20;;;;;;;5.07;2.60;;;9.60;64.60;;;;;;5113171;28;20407;-46
2022/12/21 06:41:46;;;;;;;4.87;2.50;;;9.60;71.10;;;;;;5111446;28;20509;-44
2022/12/21 06:44:12;;;;;;;2.50;2.10;;;9.60;83.80;;;;;;5111770;28;20301;-45
2022/12/21 06:46:37;;;;;;;3.40;2.27;;;9.60;80.00;;;;;;5111085;28;20176;-43
2022/12/21 06:49:03;;;;;;;4.73;2.70;;;9.60;97.30;;;;;;5093108;28;20173;-47
2022/12/21 06:51:29;;;;;;;2.70;2.10;;;9.60;99.90;;;;;;5113865;28;20187;-43
2022/12/21 06:53:55;;;;;;;2.67;2.47;;;9.60;99.90;;;;;;5116539;28;20489;-44
2022/12/21 06:56:26;;;;;;;2.70;2.50;;;9.60;99.90;;;;;;5116990;28;20567;-44
2022/12/21 06:58:53;;;;;;;3.30;2.70;;;9.60;99.90;;;;;;5115434;28;20187;-44
2022/12/21 07:01:27;;;;;;;3.40;2.37;;;9.60;99.90;;;;;;5116749;28;20465;-45
2022/12/21 07:03:53;;;;;;;2.70;2.50;;;9.60;99.90;;;;;;5117634;28;20794;-42
2022/12/21 07:06:20;;;;;;;2.70;2.00;;;9.60;99.90;;;;;;5117570;28;20425;-45
2022/12/21 07:08:47;;;;;;;3.73;2.33;;;9.60;99.90;;;;;;5120511;28;20405;-44
2022/12/21 07:11:15;;;;;;;3.23;2.80;;;9.60;99.90;;;;;;5118705;28;20703;-43
2022/12/21 07:13:42;;;;;;;2.40;2.10;;;9.60;99.90;;;;;;5117397;28;20413;-44
2022/12/21 07:16:08;;;;;;;4.33;2.67;;;9.60;99.90;;;;;;5116040;28;20490;-44
2022/12/21 07:18:34;;;;;;;2.70;2.33;;;9.70;99.90;;;;;;5117022;28;20410;-44
2022/12/21 07:21:05;;;;;;;3.80;2.47;;;9.60;99.90;;;;;;5117251;28;20456;-43
2022/12/21 07:23:31;;;;;;;3.00;2.60;;;9.60;99.90;;;;;;5118143;28;20404;-44
2022/12/21 07:25:57;;;;;;;7.13;2.80;;;9.60;99.90;;;;;;5117429;28;20406;-43
2022/12/21 07:28:24;;;;;;;6.50;2.30;;;9.60;99.90;;;;;;5116789;28;20416;-45
2022/12/21 07:31:08;;;;;;;3.90;2.17;;;9.60;99.90;;;;;;5118124;28;20542;-44
2022/12/21 07:33:34;;;;;;;4.63;2.57;;;9.60;99.90;;;;;;5115107;28;20462;-45
2022/12/21 07:36:01;;;;;;;2.83;1.97;;;9.60;99.90;;;;;;5114097;28;20903;-44
2022/12/21 07:38:28;;;;;;;2.43;2.00;;;9.60;99.90;;;;;;5113963;28;20442;-44
2022/12/21 07:41:02;;;;;;;2.50;2.30;;;9.60;99.90;;;;;;5114148;28;20457;-45
2022/12/21 07:43:29;;;;;;;3.03;2.17;;;9.60;99.90;;;;;;5116168;28;20417;-43
2022/12/21 07:45:54;;;;;;;2.63;2.27;;;9.70;99.90;;;;;;5097135;28;20431;-43
2022/12/21 07:48:20;;;;;;;3.00;1.90;;;9.70;92.80;;;;;;5115671;28;20500;-43
2022/12/21 07:50:50;;;;;;;2.43;2.00;;;9.70;82.70;;;;;;5117397;28;20554;-44
2022/12/21 07:53:16;;;;;;;2.57;2.03;;;9.70;81.40;;;;;;5117311;28;20252;-43
2022/12/21 07:55:42;;;;;;;2.90;2.23;;;9.70;54.90;;;;;;5116789;28;20414;-46
2022/12/21 07:58:08;;;;;;;2.30;1.77;;;9.70;45.50;;;;;;5098200;28;20455;-43
2022/12/21 08:00:34;;;;;;;2.97;2.13;;;9.70;40.90;;;;;;5118076;28;20457;-43
2022/12/21 08:03:00;;;;;;;4.30;2.33;;;9.80;26.90;;;;;;5117178;28;20433;-46
2022/12/21 08:05:26;;;;;;;2.93;1.90;;;9.80;10.80;;;;;;5117149;28;20486;-44
2022/12/21 08:07:52;;;;;;;3.90;2.23;;;9.80;15.60;;;;;;5118137;28;20236;-42
2022/12/21 08:10:19;;;;;;;3.70;2.40;;;9.80;22.40;;;;;;5117043;28;20186;-43
2022/12/21 08:12:44;;;;;;;3.93;2.30;;;9.80;30.00;;;;;;5115546;28;20939;-45
2022/12/21 08:15:11;;;;;;;2.30;2.10;;;9.80;22.30;;;;;;5114208;28;20860;-42
2022/12/21 08:17:37;;;;;;;3.13;2.20;;;9.80;16.90;;;;;;5116503;28;20187;-44
2022/12/21 08:20:03;;;;;;;3.33;2.53;;;9.80;16.80;;;;;;5118239;28;20457;-44
2022/12/21 08:22:30;;;;;;;3.77;2.07;;;9.80;13.70;;;;;;5116429;28;20204;-44
2022/12/21 08:24:55;;;;;;;2.40;2.20;;;9.80;9.60;;;;;;5117644;28;20912;-45
2022/12/21 08:27:21;;;;;;;2.60;2.30;;;9.80;13.80;;;;;;5118082;28;20176;-42
2022/12/21 08:29:46;;;;;;;2.30;2.10;;;9.90;6.30;;;;;;5117745;28;20171;-44
2022/12/21 08:32:12;;;;;;;2.93;2.03;;;9.90;1.00;;;;;;5116075;28;20195;-43
2022/12/21 08:34:38;;;;;;;3.40;2.63;;;9.90;1.00;;;;;;5117418;28;20179;-44
2022/12/21 08:37:03;;;;;;;3.50;2.63;;;9.90;1.00;;;;;;5118142;28;20199;-43
2022/12/21 08:39:29;;;;;;;8.47;2.60;;;9.90;1.00;;;;;;5116911;28;20183;-43
2022/12/21 08:41:55;;;;;;;2.93;2.63;;;10.00;1.00;;;;;;5117017;28;20218;-43
2022/12/21 08:44:21;;;;;;;3.70;3.00;;;10.00;1.00;;;;;;5114990;28;20441;-43
2022/12/21 08:46:46;;;;;;;3.33;2.13;;;10.00;1.00;;;;;;5117450;28;20190;-44
2022/12/21 08:49:12;;;;;;;6.27;2.70;;;10.00;1.00;;;;;;5116941;28;20254;-45
2022/12/21 08:51:38;;;;;;;2.90;2.60;;;10.00;1.00;;;;;;5117245;28;20241;-43
2022/12/21 08:54:07;;;;;;;3.63;2.53;;;10.00;1.00;;;;;;5116937;28;20179;-45
2022/12/21 08:56:33;;;;;;;3.30;2.43;;;10.00;1.00;;;;;;5112884;28;20703;-43
2022/12/21 08:59:01;;;;;;;3.10;2.80;;;10.00;1.00;;;;;;5113942;28;20436;-42
2022/12/21 09:01:27;;;;;;;3.13;2.70;;;10.10;1.00;;;;;;5095757;28;20984;-44
2022/12/21 09:03:52;;;;;;;6.00;2.80;;;10.10;1.00;;;;;;5113528;28;20889;-45
2022/12/21 09:06:18;;;;;;;3.07;2.77;;;10.10;1.00;;;;;;5095119;28;20638;-42
2022/12/21 09:08:44;;;;;;;2.73;1.80;;;10.10;99.90;;;;;;5095151;28;20203;-48
2022/12/21 09:11:12;;;;;;;4.30;1.73;;;10.30;99.90;;;;;;5096874;28;20180;-45
2022/12/21 09:13:38;;;;;;;3.43;2.00;;;11.00;1.00;;;;;;5114689;28;21008;-46
2022/12/21 09:16:20;;;;;;;6.00;2.00;;;11.70;1.00;;;;;;5111054;28;20441;-47
2022/12/21 09:18:46;;;;;;;5.13;2.07;;;12.30;99.90;;;;;;5076449;28;20442;-48
2022/12/21 09:21:15;;;;;;;2.57;1.70;;;12.80;1.00;;;;;;5077619;28;20478;-46
2022/12/21 09:23:41;;;;;;;4.97;2.07;;;13.20;99.90;;;;;;5108858;28;20441;-46
2022/12/21 09:26:07;;;;;;;5.77;1.90;;;13.50;1.00;;;;;;5111898;28;20807;-43
2022/12/21 09:28:34;;;;;;;3.80;2.20;;;13.80;99.90;;;;;;5084996;28;22463;-41
2022/12/21 09:31:28;;;;;;;5.53;2.70;;;13.80;99.90;;;;;;5114886;28;20433;-42
2022/12/21 09:33:55;;;;;;;7.17;2.63;;;13.50;1.00;;;;;;5084207;28;20492;-45
2022/12/21 09:36:22;;;;;;;3.73;2.60;;;13.20;1.00;;;;;;5093477;28;20519;-42
2022/12/21 09:38:48;;;;;;;2.83;2.60;;;13.00;99.90;;;;;;5094422;28;20788;-42
2022/12/21 09:41:28;;;;;;;3.83;2.70;;;12.70;99.90;;;;;;5093769;28;20748;-42
2022/12/21 09:44:06;;;;;;;4.40;2.50;;;12.50;99.90;;;;;;5093855;28;20492;-44
2022/12/21 09:46:35;;;;;;;3.40;2.73;;;12.30;1.00;;;;;;5074458;28;20831;-43
2022/12/21 09:49:10;;;;;;;5.10;3.13;;;12.10;1.00;;;;;;5056566;28;20881;-45
2022/12/21 09:51:36;;;;;;;3.90;2.50;;;12.00;30.30;;;;;;5073421;28;20434;-42
2022/12/21 09:54:05;;;;;;;3.60;2.70;;;12.00;99.90;;;;;;5081405;28;20426;-43
2022/12/21 09:56:32;;;;;;;2.87;2.20;;;11.90;99.90;;;;;;5112377;28;20955;-42
2022/12/21 09:59:04;;;;;;;3.10;2.80;;;11.90;99.90;;;;;;5094307;28;20430;-42
2022/12/21 10:01:29;;;;;;;3.23;2.77;;;11.90;99.90;;;;;;5076660;28;20478;-45
2022/12/21 10:04:10;;;;;;;3.13;2.83;;;12.00;99.90;;;;;;5096605;28;20414;-43
2022/12/21 10:06:45;;;;;;;7.60;3.10;;;12.00;99.90;;;;;;5095555;28;20177;-42
2022/12/21 10:09:13;;;;;;;4.70;2.73;;;12.10;99.90;;;;;;5095502;28;20795;-42
2022/12/21 10:11:59;;;;;;;3.90;3.17;;;12.20;99.90;;;;;;5102924;28;20549;-43
2022/12/21 10:14:43;;;;;;;4.50;3.37;;;12.40;99.90;;;;;;5093199;28;20799;-43
2022/12/21 10:17:21;;;;;;;3.03;2.73;;;12.60;1.00;;;;;;5093610;28;20508;-42
2022/12/21 10:20:22;;;;;;;3.30;3.00;;;12.60;1.00;;;;;;5093509;28;20889;-45
2022/12/21 10:22:52;;;;;;;3.53;3.23;;;12.70;99.90;;;;;;5094983;28;20458;-45
2022/12/21 10:25:21;;;;;;;4.23;3.50;;;12.80;99.90;;;;;;5077846;28;20453;-43
2022/12/21 10:27:55;;;;;;;10.50;3.47;;;12.90;99.90;;;;;;5063692;28;20487;-44
2022/12/21 10:30:20;;;;;;;4.37;3.70;;;13.10;59.30;;;;;;5098723;28;20406;-43
2022/12/21 10:32:48;;;;;;;4.07;3.63;;;13.20;1.00;;;;;;5098135;28;20453;-44
2022/12/21 10:35:18;;;;;;;3.83;3.43;;;13.30;1.00;;;;;;5097926;28;20232;-46
2022/12/21 10:37:54;;;;;;;4.87;3.70;;;13.40;99.90;;;;;;5099557;28;20848;-44
2022/12/21 10:40:23;;;;;;;5.30;3.60;;;13.40;99.90;;;;;;5098331;28;20860;-44
2022/12/21 10:42:51;;;;;;;4.00;3.57;;;13.60;99.90;;;;;;5061930;28;20499;-43
2022/12/21 10:45:19;;;;;;;4.37;3.37;;;13.80;99.90;;;;;;5080286;28;20483;-44
2022/12/21 10:47:44;;;;;;;4.23;3.60;;;14.30;99.90;;;;;;5079410;28;20437;-44
2022/12/21 10:50:18;;;;;;;3.57;3.20;;;15.50;99.90;;;;;;5098765;28;20410;-42
2022/12/21 10:52:45;;;;;;;3.37;3.00;;;16.90;1.00;;;;;;5097201;28;20189;-43
2022/12/21 10:55:17;;;;;;;3.73;3.33;;;17.40;99.90;;;;;;5095621;28;20426;-43
2022/12/21 10:57:50;;;;;;;3.20;2.83;;;17.40;1.00;;;;;;5096431;28;20442;-40
2022/12/21 11:00:19;;;;;;;3.87;3.17;;;17.30;1.00;;;;;;5093817;28;20477;-42
2022/12/21 11:02:45;;;;;;;3.30;2.90;;;17.50;1.00;;;;;;5103590;28;20434;-45
2022/12/21 11:05:29;;;;;;;2.90;2.70;;;17.50;1.00;;;;;;5093921;28;20411;-42
2022/12/21 11:08:21;;;;;;;3.90;3.10;;;17.60;1.00;;;;;;5094223;28;20792;-42
2022/12/21 11:10:49;;;;;;;3.13;2.77;;;18.10;1.00;;;;;;5075425;28;20491;-41
2022/12/21 11:13:16;;;;;;;3.57;3.27;;;18.60;1.00;;;;;;5096316;28;20425;-43
2022/12/21 11:15:54;;;;;;;2.70;2.50;;;18.60;1.00;;;;;;5099622;28;20549;-45
2022/12/21 11:18:42;;;;;;;4.43;3.10;;;18.40;1.00;;;;;;5094992;28;20422;-43
2022/12/21 11:21:40;;;;;;;3.20;2.90;;;18.30;1.00;;;;;;5100117;28;20546;-42
2022/12/21 11:24:14;;;;;;;2.43;2.23;;;18.50;1.00;;;;;;5115749;28;20695;-41
2022/12/21 11:26:51;;;;;;;2.60;2.07;;;19.00;1.00;;;;;;5098754;28;20486;-43
2022/12/21 11:29:23;;;;;;;3.60;2.90;;;20.80;1.00;;;;;;5114846;28;21102;-44
2022/12/21 11:31:49;;;;;;;2.30;2.10;;;23.30;1.00;;;;;;5113667;28;20925;-44
2022/12/21 11:34:30;;;;;;;2.50;2.07;;;25.50;1.00;;;;;;5114384;28;20882;-43
2022/12/21 11:37:00;;;;;;;3.30;2.50;;;27.60;1.00;;;;;;5088406;28;20546;-45
2022/12/21 11:39:26;;;;;;;2.80;2.50;;;29.30;1.00;;;;;;5095897;28;20398;-43
2022/12/21 11:41:53;;;;;;;2.50;2.23;;;30.80;1.00;;;;;;5096974;28;20742;-43
2022/12/21 11:44:23;;;;;;;2.90;2.43;;;31.80;1.00;;;;;;5096381;28;20415;-43
2022/12/21 11:47:12;;;;;;;2.60;2.40;;;32.60;1.00;;;;;;5097441;28;20691;-44
2022/12/21 11:49:45;;;;;;;3.30;2.70;;;33.70;1.00;;;;;;5083482;28;20688;-43
2022/12/21 11:52:16;;;;;;;2.80;2.60;;;34.20;1.00;;;;;;5114068;28;20404;-43
2022/12/21 11:54:51;;;;;;;2.73;2.13;;;34.10;1.00;;;;;;5108152;28;20803;-43
2022/12/21 11:57:25;;;;;;;2.30;2.10;;;33.70;1.00;;;;;;5112083;28;20443;-46
2022/12/21 12:00:08;;;;;;;3.10;2.20;;;32.40;1.00;;;;;;5096291;28;20466;-43
2022/12/21 12:02:55;;;;;;;4.43;2.13;;;31.00;1.00;;;;;;5115643;28;20471;-43
2022/12/21 12:05:26;;;;;;;2.60;1.93;;;29.10;1.00;;;;;;5116522;28;20388;-44
2022/12/21 12:07:51;;;;;;;2.50;2.30;;;27.30;1.00;;;;;;5117105;28;20396;-42
2022/12/21 12:10:23;;;;;;;3.63;1.90;;;26.20;1.00;;;;;;5115041;28;20417;-43
2022/12/21 12:13:22;;;;;;;2.70;2.40;;;25.80;1.00;;;;;;5107071;28;20172;-45
2022/12/21 12:16:25;;;;;;;2.17;1.97;;;26.00;1.00;;;;;;5069793;28;20440;-45
2022/12/21 12:18:59;;;;;;;2.27;2.07;;;25.90;1.00;;;;;;5094729;28;20458;-43
2022/12/21 12:21:37;;;;;;;2.73;1.80;;;25.30;1.00;;;;;;5091691;28;20684;-43
2022/12/21 12:24:21;;;;;;;2.83;2.03;;;25.10;1.00;;;;;;5091739;28;20640;-43
2022/12/21 12:27:06;;;;;;;2.27;2.07;;;25.30;1.00;;;;;;5091674;28;20418;-43
2022/12/21 12:29:57;;;;;;;2.67;2.10;;;25.10;1.00;;;;;;5090670;28;20410;-43
2022/12/21 12:33:01;;;;;;;1.97;1.83;;;24.60;1.00;;;;;;5093331;28;20461;-45
2022/12/21 12:35:54;;;;;;;5.43;2.13;;;24.10;1.00;;;;;;5081937;28;20404;-44
2022/12/21 12:38:35;;;;;;;2.37;2.07;;;24.20;1.00;;;;;;5115074;28;20424;-44
2022/12/21 12:41:58;;;;;;;1.90;1.70;;;24.40;1.00;;;;;;5098869;28;20480;-44
2022/12/21 12:45:01;;;;;;;1.90;1.73;;;24.00;1.00;;;;;;5032227;28;20429;-42
2022/12/21 12:47:29;;;;;;;2.77;1.93;;;23.20;1.00;;;;;;5029642;28;20495;-47
2022/12/21 12:50:17;;;;;;;3.27;1.90;;;22.30;1.00;;;;;;5076945;28;20418;-43
2022/12/21 12:52:58;;;;;;;2.70;2.20;;;21.50;1.00;;;;;;5097033;28;20437;-44
2022/12/21 12:55:48;;;;;;;2.70;2.20;;;20.80;1.00;;;;;;5111606;28;20479;-44
2022/12/21 12:58:18;;;;;;;2.50;2.20;;;20.00;1.00;;;;;;5112894;28;20434;-43
2022/12/21 13:01:34;;;;;;;2.00;1.80;;;19.50;1.00;;;;;;5111976;28;20456;-43
2022/12/21 13:04:16;;;;;;;2.10;1.60;;;19.00;1.00;;;;;;5100681;28;20573;-43
2022/12/21 13:07:06;;;;;;;2.13;1.90;;;18.60;1.00;;;;;;5092017;28;20443;-42
2022/12/21 13:09:50;;;;;;;2.60;2.13;;;18.30;1.00;;;;;;5102679;28;20429;-43
2022/12/21 13:12:42;;;;;;;2.27;2.07;;;18.10;1.00;;;;;;5095479;28;20426;-44
2022/12/21 13:15:36;;;;;;;2.50;2.30;;;17.80;1.00;;;;;;5105204;28;20564;-44
2022/12/21 13:18:06;;;;;;;4.73;2.63;;;17.50;1.00;;;;;;5101263;28;20422;-42
2022/12/21 13:20:34;;;;;;;2.50;2.10;;;17.20;1.00;;;;;;5113450;28;20759;-43
2022/12/21 13:23:09;;;;;;;3.80;2.20;;;17.00;1.00;;;;;;5112953;28;20425;-43
2022/12/21 13:26:11;;;;;;;2.73;2.43;;;16.70;1.00;;;;;;5114118;28;20482;-42
2022/12/21 13:29:08;;;;;;;2.23;2.00;;;16.60;1.00;;;;;;5054692;28;20424;-42
2022/12/21 13:31:49;;;;;;;2.40;2.20;;;16.80;1.00;;;;;;5104665;28;20433;-44
2022/12/21 13:34:27;;;;;;;2.87;1.93;;;17.00;1.00;;;;;;5109883;28;20424;-43
2022/12/21 13:36:53;;;;;;;2.30;2.00;;;17.10;1.00;;;;;;5093254;28;20494;-42
2022/12/21 13:39:32;;;;;;;3.00;1.73;;;17.20;1.00;;;;;;5093518;28;20424;-46